createdAt,value
2019-01-20T00:00:01.282Z,91.13
2019-01-20T00:05:01.550Z,90.07
2019-01-20T00:10:01.803Z,89.88
2019-01-20T00:15:02.123Z,90.73
2019-01-20T00:20:01.397Z,91.06
2019-01-20T00:25:01.758Z,91.91
2019-01-20T00:30:02.053Z,91.98
2019-01-20T00:35:01.381Z,92.23
2019-01-20T00:40:01.673Z,92.19
2019-01-20T00:45:03.266Z,90.78
2019-01-20T00:50:01.595Z,89.81
2019-01-20T00:55:01.936Z,89.1
2019-01-20T01:00:01.259Z,88.64
2019-01-20T01:05:01.693Z,88.49
2019-01-20T01:10:01.946Z,88.26
2019-01-20T01:15:01.213Z,87.91
2019-01-20T01:20:01.555Z,87.94
2019-01-20T01:25:01.839Z,88.13
2019-01-20T01:30:02.123Z,88.3
2019-01-20T01:35:01.476Z,88.39
2019-01-20T01:40:01.787Z,88.29
2019-01-20T01:45:02.036Z,88.05
2019-01-20T01:50:01.292Z,87.97
2019-01-20T01:55:01.798Z,87.94
2019-01-20T02:00:02.069Z,87.84
2019-01-20T02:05:01.363Z,87.33
2019-01-20T02:10:01.839Z,87.43
2019-01-20T02:15:02.095Z,87.53
2019-01-20T02:20:01.373Z,88.33
2019-01-20T02:25:01.863Z,88.88
2019-01-20T02:30:02.135Z,89.23
2019-01-20T02:35:01.474Z,89.53
2019-01-20T02:40:01.787Z,88.53
2019-01-20T02:45:02.158Z,88.17
2019-01-20T02:50:01.449Z,88.17
2019-01-20T02:55:01.786Z,88.21
2019-01-20T03:00:02.076Z,88.38
2019-01-20T03:05:01.324Z,88.59
2019-01-20T03:10:01.608Z,88.88
2019-01-20T03:15:01.881Z,89.27
2019-01-20T03:20:02.182Z,89.46
2019-01-20T03:25:01.477Z,90.28
2019-01-20T03:30:01.716Z,91.16
2019-01-20T03:35:01.994Z,91.84
2019-01-20T03:40:01.578Z,91.75
2019-01-20T03:45:01.941Z,92.5
2019-01-20T03:50:01.208Z,92.93
2019-01-20T03:55:01.521Z,93.44
2019-01-20T04:00:01.841Z,93.71
2019-01-20T04:05:02.116Z,93.87
2019-01-20T04:10:01.366Z,94.02
2019-01-20T04:15:01.680Z,94.21
2019-01-20T04:20:02.027Z,94.12
2019-01-20T04:25:01.289Z,94.16
2019-01-20T04:30:01.572Z,93.98
2019-01-20T04:35:01.895Z,93.8
2019-01-20T04:40:01.212Z,94.02
2019-01-20T04:45:01.545Z,93.87
2019-01-20T04:50:01.828Z,94.05
2019-01-20T04:55:02.102Z,94.13
2019-01-20T05:00:01.370Z,94.27
2019-01-20T05:05:01.671Z,94.57
2019-01-20T05:10:01.935Z,94.77
2019-01-20T05:15:01.295Z,94.78
2019-01-20T05:20:01.615Z,94.92
2019-01-20T05:25:01.885Z,94.98
2019-01-20T05:30:01.296Z,95.29
2019-01-20T05:35:01.731Z,94.7
2019-01-20T05:40:01.627Z,94.08
2019-01-20T05:45:01.925Z,94.12
2019-01-20T05:50:01.538Z,93.99
2019-01-20T05:55:01.867Z,93.16
2019-01-20T06:00:02.125Z,92
2019-01-20T06:05:01.386Z,91.89
2019-01-20T06:10:01.672Z,92.69
2019-01-20T06:15:02.000Z,92.78
2019-01-20T06:20:01.285Z,93.02
2019-01-20T06:25:01.600Z,93.46
2019-01-20T06:30:01.880Z,93.86
2019-01-20T06:35:02.141Z,94.18
2019-01-20T06:40:01.415Z,94.45
2019-01-20T06:45:01.654Z,94.44
2019-01-20T06:50:01.938Z,94.77
2019-01-20T06:55:01.229Z,94.72
2019-01-20T07:00:01.510Z,94.82
2019-01-20T07:05:01.763Z,94.85
2019-01-20T07:10:02.002Z,95.03
2019-01-20T07:15:01.306Z,94.94
2019-01-20T07:20:01.605Z,94.96
2019-01-20T07:25:01.852Z,95.41
2019-01-20T07:30:02.107Z,95.83
2019-01-20T07:35:01.403Z,95.86
2019-01-20T07:40:01.699Z,96.41
2019-01-20T07:45:01.987Z,96.57
2019-01-20T07:50:01.297Z,96.78
2019-01-20T07:55:01.666Z,96.79
2019-01-20T08:00:01.946Z,96.18
2019-01-20T08:05:01.279Z,95.92
2019-01-20T08:10:01.562Z,95.83
2019-01-20T08:15:01.868Z,95.93
2019-01-20T08:20:02.160Z,95.8
2019-01-20T08:25:01.427Z,95.51
2019-01-20T08:30:01.748Z,95.8
2019-01-20T08:35:02.062Z,96
2019-01-20T08:40:01.355Z,96.08
2019-01-20T08:45:01.652Z,95.49
2019-01-20T08:50:01.950Z,95.78
2019-01-20T08:55:02.957Z,95.89
2019-01-20T09:00:01.214Z,95.9
2019-01-20T09:05:01.494Z,94.82
2019-01-20T09:10:01.814Z,94.03
2019-01-20T09:15:02.096Z,94.19
2019-01-20T09:20:01.365Z,93.51
2019-01-20T09:25:01.669Z,93.16
2019-01-20T09:30:01.993Z,93.3
2019-01-20T09:35:01.308Z,93.29
2019-01-20T09:40:01.614Z,92.87
2019-01-20T09:45:01.983Z,92.61
2019-01-20T09:50:01.300Z,92.17
2019-01-20T09:55:01.627Z,92.09
2019-01-20T10:00:01.911Z,91.45
2019-01-20T10:05:01.223Z,90.68
2019-01-20T10:10:01.529Z,89.87
2019-01-20T10:15:01.828Z,89.4
2019-01-20T10:20:02.103Z,88.51
2019-01-20T10:25:01.370Z,86.69
2019-01-20T10:30:01.692Z,82.93
2019-01-20T10:35:01.970Z,78.43
2019-01-20T10:40:01.252Z,77.92
2019-01-20T10:45:01.607Z,76.07
2019-01-20T10:50:01.928Z,77.89
2019-01-20T10:55:01.216Z,77.3
2019-01-20T11:00:01.487Z,77.07
2019-01-20T11:05:03.475Z,76.78
2019-01-20T11:10:01.848Z,76.7
2019-01-20T11:15:02.106Z,74.35
2019-01-20T11:20:01.431Z,74.35
2019-01-20T11:25:01.746Z,73.72
2019-01-20T11:30:02.014Z,74.43
2019-01-20T11:35:01.305Z,75.82
2019-01-20T11:40:01.594Z,75.23
2019-01-20T11:45:01.889Z,75.76
2019-01-20T11:50:02.229Z,75.58
2019-01-20T11:55:01.490Z,75.62
2019-01-20T12:00:01.792Z,76.13
2019-01-20T12:05:02.100Z,76.9
2019-01-20T12:10:01.367Z,76.96
2019-01-20T12:15:01.663Z,76.45
2019-01-20T12:20:02.052Z,76.45
2019-01-20T12:25:01.351Z,76.4
2019-01-20T12:30:01.632Z,75.94
2019-01-20T12:35:02.077Z,76.26
2019-01-20T12:40:01.432Z,76.03
2019-01-20T12:45:01.775Z,75.85
2019-01-20T12:50:02.051Z,75.73
2019-01-20T12:55:01.330Z,75.72
2019-01-20T13:00:01.703Z,75.75
2019-01-20T13:05:01.971Z,77.1
2019-01-20T13:10:01.253Z,75.67
2019-01-20T13:15:01.572Z,75.17
2019-01-20T13:20:01.938Z,75.1
2019-01-20T13:25:01.226Z,75.6
2019-01-20T13:30:01.537Z,76.28
2019-01-20T13:35:01.825Z,75.41
2019-01-20T13:40:02.126Z,75.33
2019-01-20T13:45:01.462Z,75.39
2019-01-20T13:50:01.783Z,74.9
2019-01-20T13:55:02.090Z,74.3
2019-01-20T14:00:01.364Z,74.78
2019-01-20T14:05:01.659Z,74.55
2019-01-20T14:10:01.956Z,74.19
2019-01-20T14:15:01.222Z,74.3
2019-01-20T14:20:01.610Z,73.5
2019-01-20T14:25:01.938Z,73.85
2019-01-20T14:30:01.207Z,72.8
2019-01-20T14:35:01.528Z,73.09
2019-01-20T14:40:01.840Z,72.24
2019-01-20T14:45:02.149Z,71.87
2019-01-20T14:50:01.400Z,71.69
2019-01-20T14:55:01.969Z,72.38
2019-01-20T15:00:01.236Z,72.43
2019-01-20T15:05:01.561Z,72.37
2019-01-20T15:10:01.857Z,73.31
2019-01-20T15:15:09.186Z,73.69
2019-01-20T15:20:01.537Z,74.39
2019-01-20T15:25:01.837Z,75.57
2019-01-20T15:30:02.120Z,76.99
2019-01-20T15:35:01.423Z,77.75
2019-01-20T15:40:01.718Z,77.79
2019-01-20T15:45:02.006Z,77.59
2019-01-20T15:50:01.295Z,78.03
2019-01-20T15:55:01.591Z,79.22
2019-01-20T16:00:01.885Z,79.83
2019-01-20T16:05:02.174Z,80.76
2019-01-20T16:10:01.454Z,81.62
2019-01-20T16:15:01.764Z,81.81
2019-01-20T16:20:02.093Z,81.95
2019-01-20T16:25:01.385Z,82.34
2019-01-20T16:30:01.667Z,83.02
2019-01-20T16:35:01.950Z,83.52
2019-01-20T16:40:01.214Z,84.09
2019-01-20T16:45:01.530Z,85.59
2019-01-20T16:50:01.909Z,84.92
2019-01-20T16:55:01.249Z,84.56
2019-01-20T17:00:01.518Z,84.82
2019-01-20T17:05:01.824Z,84.58
2019-01-20T17:10:02.086Z,85.07
2019-01-20T17:15:01.321Z,85.18
2019-01-20T17:20:01.629Z,85.67
2019-01-20T17:25:01.970Z,86.16
2019-01-20T17:30:01.291Z,86.6
2019-01-20T17:35:01.605Z,87.47
2019-01-20T17:40:01.894Z,88.43
2019-01-20T17:45:01.223Z,87.94
2019-01-20T17:50:01.522Z,87.85
2019-01-20T17:55:01.817Z,87.92
2019-01-20T18:00:02.137Z,88.4
2019-01-20T18:05:01.427Z,88.4
2019-01-20T18:10:01.779Z,88.55
2019-01-20T18:15:02.066Z,88.51
2019-01-20T18:20:01.374Z,88.76
2019-01-20T18:25:01.685Z,88.81
2019-01-20T18:30:02.038Z,89
2019-01-20T18:35:01.346Z,88.6
2019-01-20T18:40:01.667Z,88.68
2019-01-20T18:45:01.991Z,88.58
2019-01-20T18:50:01.274Z,89.09
2019-01-20T18:55:01.535Z,89.05
2019-01-20T19:00:01.914Z,88.84
2019-01-20T19:05:01.210Z,89.39
2019-01-20T19:10:01.477Z,90.12
2019-01-20T19:15:01.760Z,90.02
2019-01-20T19:20:02.051Z,90.58
2019-01-20T19:25:01.320Z,91.05
2019-01-20T19:30:01.598Z,91.21
2019-01-20T19:35:01.905Z,91.38
2019-01-20T19:40:01.244Z,91.69
2019-01-20T19:45:01.524Z,91.79
2019-01-20T19:50:01.798Z,91.73
2019-01-20T19:55:02.045Z,92.3
2019-01-20T20:00:01.349Z,92.52
2019-01-20T20:05:01.792Z,92.52
2019-01-20T20:10:02.089Z,92.3
2019-01-20T20:15:01.370Z,91.66
2019-01-20T20:20:01.767Z,91.53
2019-01-20T20:25:02.073Z,91.63
2019-01-20T20:30:01.370Z,91.71
2019-01-20T20:35:01.672Z,91.76
2019-01-20T20:40:01.942Z,91.85
2019-01-20T20:45:01.176Z,91.96
2019-01-20T20:50:01.410Z,92
2019-01-20T20:55:01.660Z,92.26
2019-01-20T21:00:01.887Z,92.43
2019-01-20T21:05:02.126Z,93.28
2019-01-20T21:10:01.375Z,93.39
2019-01-20T21:15:03.700Z,93.57
2019-01-20T21:20:01.947Z,93.48
2019-01-20T21:25:01.223Z,93.18
2019-01-20T21:30:01.450Z,93.09
2019-01-20T21:35:01.730Z,93.09
2019-01-20T21:40:01.960Z,93.22
2019-01-20T21:45:01.350Z,93.32
2019-01-20T21:50:01.615Z,94.01
2019-01-20T21:55:01.878Z,94.17
2019-01-20T22:00:02.124Z,94.06
2019-01-20T22:05:01.359Z,94.38
2019-01-20T22:10:01.582Z,94.48
2019-01-20T22:15:01.859Z,94.51
2019-01-20T22:20:02.094Z,94.39
2019-01-20T22:25:01.331Z,94.39
2019-01-20T22:30:01.558Z,94.96
2019-01-20T22:35:01.857Z,94.45
2019-01-20T22:40:02.328Z,94.44
2019-01-20T22:45:01.593Z,94.67
2019-01-20T22:50:01.861Z,94.89
2019-01-20T22:55:02.143Z,94.57
2019-01-20T23:00:01.376Z,94.65
2019-01-20T23:05:01.704Z,94.8
2019-01-20T23:10:01.960Z,94.83
2019-01-20T23:15:01.251Z,94.96
2019-01-20T23:20:01.499Z,95.11
2019-01-20T23:25:01.908Z,95.02
2019-01-20T23:30:01.299Z,95.04
2019-01-20T23:35:01.577Z,94.86
2019-01-20T23:40:01.839Z,94.89
2019-01-20T23:45:02.088Z,94.77
2019-01-20T23:50:01.356Z,94.75
2019-01-20T23:55:01.666Z,94.97
